ADDS METAR Data INFO
IDs: Format: Raw Decoded Include TAF

Data at: 1951 UTC 15 Dec 2017

KJYM 151935Z AUTO 27012G22KT 10SM -SN SCT023 SCT029 OVC040 M03/M08 A2980 RMK AO2
KJYM 151915Z AUTO 26013G25KT 10SM SCT015 BKN027 OVC044 M03/M08 A2980 RMK AO2
KJYM 151855Z AUTO 26016G23KT 2SM -SN SCT004 SCT013 OVC017 M03/M07 A2980 RMK AO2
KJYM 151835Z AUTO 26016G22KT 10SM OVC017 M03/M08 A2979 RMK AO2
KJYM 151815Z AUTO 25012G19KT 10SM OVC017 M03/M07 A2979 RMK AO2
KJYM 151755Z AUTO 25011G17KT 10SM OVC017 M03/M07 A2979 RMK AO2
KJYM 151735Z AUTO 24010G18KT 10SM OVC017 M04/M08 A2979 RMK AO2
KJYM 151715Z AUTO 25015G20KT 7SM -SN BKN015 BKN021 OVC042 M04/M08 A2980 RMK AO2
KJYM 151655Z AUTO 24011G17KT 10SM -SN BKN013 OVC021 M05/M08 A2980 RMK AO2
KJYM 151635Z AUTO 25011G20KT 7SM -SN OVC013 M05/M08 A2981 RMK AO2
KJYM 151615Z AUTO 24010G15KT 5SM -SN OVC015 M05/M08 A2982 RMK AO2
KJYM 151555Z AUTO 23011G14KT 1 3/4SM -SN BKN017 OVC027 M05/M08 A2982 RMK AO2
KJYM 151535Z AUTO 24011G16KT 2 1/2SM -SN SCT019 OVC029 M05/M08 A2983 RMK AO2
KJYM 151515Z AUTO 23010G17KT 7SM -SN SCT019 OVC028 M05/M09 A2983 RMK AO2
KJYM 151455Z AUTO 22013G16KT 4SM -SN OVC019 M05/M09 A2984 RMK AO2
KJYM 151435Z AUTO 23010KT 10SM OVC021 M06/M10 A2984 RMK AO2
KJYM 151415Z AUTO 22010G14KT 10SM -SN OVC023 M06/M10 A2984 RMK AO2
KJYM 151355Z AUTO 22008KT 10SM OVC023 M06/M10 A2984 RMK AO2
KJYM 151335Z AUTO 22010KT 10SM OVC023 M06/M10 A2985 RMK AO2
KJYM 151315Z AUTO 22008KT 10SM BKN023 OVC028 M06/M10 A2986 RMK AO2
KJYM 151255Z AUTO 20007KT 10SM OVC028 M07/M10 A2986 RMK AO2
KJYM 151235Z AUTO 19005KT 10SM OVC026 M07/M11 A2987 RMK AO2
KJYM 151215Z AUTO 20006KT 10SM SCT028 BKN055 OVC090 M07/M11 A2987 RMK AO2
KJYM 151155Z AUTO 20006KT 10SM SCT041 OVC090 M07/M11 A2988 RMK AO2
KJYM 151135Z AUTO 20006KT 10SM OVC100 M07/M11 A2988 RMK AO2
KJYM 151115Z AUTO 19005KT 10SM OVC100 M07/M11 A2989 RMK AO2
KJYM 151055Z AUTO 19005KT 10SM OVC100 M08/M12 A2989 RMK AO2
KJYM 151035Z AUTO 20005KT 10SM OVC100 M08/M12 A2989 RMK AO2
KJYM 151015Z AUTO 19004KT 10SM SCT024 OVC100 M08/M12 A2989 RMK AO2
KJYM 150955Z AUTO 20005KT 10SM BKN024 OVC032 M08/M12 A2990 RMK AO2
KJYM 150935Z AUTO 20006KT 10SM BKN024 OVC032 M08/M12 A2991 RMK AO2
KJYM 150915Z AUTO 20006KT 10SM OVC024 M08/M12 A2993 RMK AO2
KJYM 150855Z AUTO 19006KT 10SM OVC028 M08/M13 A2993 RMK AO2
KJYM 150835Z AUTO 20006KT 10SM OVC028 M08/M13 A2994 RMK AO2
KJYM 150815Z AUTO 19005KT 10SM SCT028 OVC100 M09/M13 A2994 RMK AO2
KJYM 150755Z AUTO 19005KT 10SM OVC100 M09/M13 A2994 RMK AO2
KJYM 150735Z AUTO 19005KT 10SM SCT033 OVC100 M10/M13 A2995 RMK AO2
KJYM 150715Z AUTO 19005KT 10SM BKN035 OVC100 M10/M13 A2995 RMK AO2
KJYM 150655Z AUTO 20004KT 10SM SCT022 SCT027 OVC037 M10/M14 A2996 RMK AO2
KJYM 150635Z AUTO 20003KT 10SM SCT022 SCT026 OVC037 M09/M13 A2996 RMK AO2
KJYM 150615Z AUTO 21003KT 10SM SCT026 OVC037 M09/M13 A2996 RMK AO2
KJYM 150555Z AUTO 21003KT 10SM SCT027 BKN035 M10/M14 A2998 RMK AO2
KJYM 150535Z AUTO 21003KT 10SM CLR M10/M14 A2999 RMK AO2
KJYM 150515Z AUTO 22003KT 10SM CLR M09/M13 A2999 RMK AO2
KJYM 150455Z AUTO 22005KT 10SM CLR M09/M13 A3001 RMK AO2
KJYM 150435Z AUTO 21005KT 10SM SCT039 M09/M13 A3001 RMK AO2
KJYM 150415Z AUTO 20005KT 10SM -SN SCT034 OVC041 M08/M12 A3001 RMK AO2
KJYM 150355Z AUTO 20003KT 5SM -SN SCT028 SCT034 OVC041 M08/M12 A3001 RMK AO2
KJYM 150335Z AUTO 19004KT 7SM -SN BKN026 OVC039 M08/M12 A3001 RMK AO2
KJYM 150315Z AUTO 18004KT 7SM -SN BKN024 OVC042 M08/M13 A3002 RMK AO2
KJYM 150255Z AUTO 19004KT 10SM OVC042 M09/M13 A3002 RMK AO2
KJYM 150235Z AUTO 20003KT 10SM BKN042 M08/M13 A3002 RMK AO2
KJYM 150215Z AUTO 21005KT 10SM SCT042 M09/M13 A3002 RMK AO2
KJYM 150155Z AUTO 21003KT 10SM BKN040 M08/M13 A3002 RMK AO2
KJYM 150135Z AUTO 22004KT 10SM BKN038 M08/M13 A3002 RMK AO2
KJYM 150115Z AUTO 22005KT 10SM OVC038 M07/M13 A3002 RMK AO2
KJYM 150055Z AUTO 20006KT 10SM OVC036 M07/M13 A3002 RMK AO2
KJYM 150035Z AUTO 20004KT 10SM OVC036 M07/M13 A3002 RMK AO2
KJYM 150015Z AUTO 19003KT 10SM OVC036 M07/M13 A3003 RMK AO2
KJYM 142355Z AUTO 21003KT 10SM OVC036 M07/M13 A3003 RMK AO2
KJYM 142335Z AUTO 21003KT 10SM OVC036 M07/M13 A3003 RMK AO2
KJYM 142315Z AUTO 00000KT 10SM OVC036 M08/M13 A3002 RMK AO2
KJYM 142255Z AUTO 21003KT 10SM OVC036 M08/M13 A3002 RMK AO2
KJYM 142235Z AUTO 00000KT 10SM OVC036 M07/M13 A3001 RMK AO2
KJYM 142215Z AUTO 00000KT 10SM OVC036 M07/M13 A3001 RMK AO2
KJYM 142155Z AUTO 29004KT 10SM OVC038 M07/M13 A3001 RMK AO2
KJYM 142135Z AUTO 29004KT 10SM OVC036 M06/M13 A3001 RMK AO2
KJYM 142115Z AUTO 00000KT 10SM BKN038 M06/M13 A3001 RMK AO2
KJYM 142055Z AUTO 00000KT 10SM SCT038 M07/M13 A3000 RMK AO2
KJYM 142035Z AUTO 36003KT 10SM SCT038 M06/M13 A2999 RMK AO2
KJYM 142015Z AUTO 01004KT 10SM CLR M06/M13 A2998 RMK AO2
KJYM 141955Z AUTO 35005KT 10SM CLR M06/M13 A2998 RMK AO2
KJYM 141935Z AUTO 34006KT 10SM CLR M06/M13 A2998 RMK AO2
KJYM 141915Z AUTO 02004KT 10SM CLR M06/M14 A2998 RMK AO2
KJYM 141855Z AUTO 00000KT 10SM CLR M06/M14 A2998 RMK AO2
KJYM 141835Z AUTO 00000KT 10SM CLR M06/M14 A2998 RMK AO2
KJYM 141815Z AUTO 34003KT 10SM CLR M06/M15 A2999 RMK AO2
KJYM 141755Z AUTO 00000KT 10SM CLR M06/M15 A3000 RMK AO2
KJYM 141735Z AUTO 00000KT 10SM CLR M06/M15 A3001 RMK AO2
KJYM 141715Z AUTO 00000KT 10SM CLR M07/M15 A3000 RMK AO2
KJYM 141655Z AUTO 00000KT 10SM CLR M07/M15 A3001 RMK AO2
KJYM 141635Z AUTO 34004KT 10SM CLR M08/M15 A3001 RMK AO2
KJYM 141615Z AUTO 00000KT 10SM CLR M08/M16 A3001 RMK AO2
KJYM 141555Z AUTO 34003KT 10SM CLR M09/M16 A3000 RMK AO2
KJYM 141535Z AUTO 34004KT 10SM CLR M10/M16 A2999 RMK AO2
KJYM 141515Z AUTO 35004KT 10SM CLR M11/M15 A2998 RMK AO2
KJYM 141455Z AUTO 35006KT 10SM CLR M12/M16 A2998 RMK AO2
KJYM 141435Z AUTO 31004KT 10SM CLR M11/M15 A2997 RMK AO2
KJYM 141415Z AUTO 33004KT 10SM CLR M14/M16 A2995 RMK AO2
KJYM 141355Z AUTO 32004KT 10SM CLR M14/M16 A2994 RMK AO2
KJYM 141335Z AUTO 00000KT 10SM CLR M15/M17 A2993 RMK AO2
KJYM 141315Z AUTO 31003KT 10SM CLR M15/M17 A2992 RMK AO2
KJYM 141255Z AUTO 32005KT 10SM CLR M15/M16 A2991 RMK AO2
KJYM 141235Z AUTO 32003KT 10SM CLR M13/M16 A2990 RMK AO2
KJYM 141215Z AUTO 33005KT 10SM CLR M12/M16 A2990 RMK AO2
KJYM 141155Z AUTO 33006KT 10SM CLR M12/M15 A2989 RMK AO2
KJYM 141135Z AUTO 32007KT 10SM SCT032 M11/M14 A2987 RMK AO2
KJYM 141115Z AUTO 32005KT 10SM -SN OVC032 M10/M13 A2986 RMK AO2
KJYM 141055Z AUTO 33007KT 10SM -SN BKN027 OVC033 M10/M12 A2984 RMK AO2
KJYM 141035Z AUTO 32004KT 10SM -SN OVC023 M09/M12 A2982 RMK AO2
KJYM 141015Z AUTO 33007KT 10SM OVC019 M09/M12 A2982 RMK AO2
KJYM 140955Z AUTO 33010KT 10SM -SN OVC017 M09/M12 A2980 RMK AO2
KJYM 140935Z AUTO 33008KT 10SM -SN OVC015 M08/M12 A2979 RMK AO2
KJYM 140915Z AUTO 34011KT 10SM OVC013 M08/M12 A2978 RMK AO2
KJYM 140855Z AUTO 34012KT 10SM OVC011 M08/M11 A2976 RMK AO2
KJYM 140835Z AUTO 34011KT 10SM -SN OVC011 M08/M10 A2974 RMK AO2
KJYM 140815Z AUTO 34012KT 10SM OVC011 M07/M10 A2973 RMK AO2
KJYM 140755Z AUTO 35013G21KT 10SM OVC011 M07/M10 A2972 RMK AO2